createdAt,value
2022-12-20T00:02:02.945Z,80.54
2022-12-20T00:04:32.631Z,80.60
2022-12-20T00:07:00.594Z,79.67
2022-12-20T00:09:29.215Z,80.75
2022-12-20T00:11:57.104Z,82.49
2022-12-20T00:14:25.154Z,82.87
2022-12-20T00:16:53.051Z,84.33
2022-12-20T00:19:21.074Z,86.05
2022-12-20T00:21:50.367Z,85.31
2022-12-20T00:24:25.690Z,84.83
2022-12-20T00:26:54.185Z,84.87
2022-12-20T00:29:22.101Z,85.79
2022-12-20T00:31:50.126Z,84.99
2022-12-20T00:34:18.123Z,86.25
2022-12-20T00:36:46.078Z,85.63
2022-12-20T00:39:15.382Z,86.53
2022-12-20T00:41:43.618Z,86.81
2022-12-20T00:44:11.632Z,88.29
2022-12-20T00:46:39.603Z,87.46
2022-12-20T00:49:07.622Z,87.99
2022-12-20T00:51:35.567Z,87.86
2022-12-20T00:54:03.454Z,87.16
2022-12-20T00:56:32.872Z,86.88
2022-12-20T00:59:01.137Z,87.72
2022-12-20T01:01:31.626Z,88.11
2022-12-20T01:04:00.446Z,88.25
2022-12-20T01:06:29.383Z,87.96
2022-12-20T01:08:58.385Z,87.76
2022-12-20T01:11:28.015Z,88.61
2022-12-20T01:13:59.333Z,90.13
2022-12-20T01:16:30.188Z,90.16
2022-12-20T01:18:58.179Z,89.85
2022-12-20T01:21:27.917Z,90.73
2022-12-20T01:23:56.603Z,91.00
2022-12-20T01:26:26.629Z,91.18
2022-12-20T01:28:58.480Z,91.31
2022-12-20T01:31:28.297Z,90.37
2022-12-20T01:33:56.789Z,90.28
2022-12-20T01:36:27.079Z,89.77
2022-12-20T01:38:57.929Z,89.44
2022-12-20T01:41:26.325Z,89.40
2022-12-20T01:43:55.723Z,89.49
2022-12-20T01:46:26.491Z,89.89
2022-12-20T01:49:00.500Z,90.74
2022-12-20T01:51:30.558Z,90.11
2022-12-20T01:54:03.032Z,90.11
2022-12-20T01:56:30.918Z,88.72
2022-12-20T01:59:00.310Z,87.09
2022-12-20T02:01:29.930Z,86.68
2022-12-20T02:03:57.958Z,86.72
2022-12-20T02:06:28.140Z,86.52
2022-12-20T02:09:00.235Z,87.26
2022-12-20T02:11:50.789Z,87.68
2022-12-20T02:14:33.128Z,86.82
2022-12-20T02:17:17.033Z,86.96
2022-12-20T02:20:09.679Z,87.13
2022-12-20T02:22:54.318Z,87.86
2022-12-20T02:25:47.659Z,87.91
2022-12-20T02:28:47.254Z,87.49
2022-12-20T02:31:21.418Z,88.75
2022-12-20T02:33:51.073Z,90.57
2022-12-20T02:36:19.892Z,91.44
2022-12-20T02:38:48.192Z,90.92
2022-12-20T02:41:21.226Z,90.13
2022-12-20T02:44:11.801Z,89.63
2022-12-20T02:46:42.060Z,89.65
2022-12-20T02:49:14.953Z,89.69
2022-12-20T02:51:45.856Z,90.29
2022-12-20T02:54:15.004Z,91.35
2022-12-20T02:56:46.843Z,91.20
2022-12-20T02:59:19.181Z,91.05
2022-12-20T03:01:52.062Z,91.24
2022-12-20T03:04:22.677Z,91.61
2022-12-20T03:06:58.395Z,91.30
2022-12-20T03:09:26.389Z,92.01
2022-12-20T03:11:54.826Z,92.00
2022-12-20T03:14:22.862Z,91.56
2022-12-20T03:16:52.380Z,91.51
2022-12-20T03:19:20.574Z,91.82
2022-12-20T03:21:48.634Z,91.03
2022-12-20T03:24:17.127Z,90.13
2022-12-20T03:26:45.360Z,90.13
2022-12-20T03:29:13.348Z,89.48
2022-12-20T03:31:41.264Z,88.94
2022-12-20T03:34:10.570Z,88.29
2022-12-20T03:36:38.475Z,88.44
2022-12-20T03:39:06.444Z,88.65
2022-12-20T03:41:34.389Z,88.95
2022-12-20T03:44:02.363Z,88.17
2022-12-20T03:46:30.389Z,88.55
2022-12-20T03:48:58.379Z,88.40
2022-12-20T03:51:27.716Z,87.08
2022-12-20T03:53:55.889Z,87.40
2022-12-20T03:56:23.753Z,87.74
2022-12-20T03:58:51.714Z,86.69
2022-12-20T04:01:22.752Z,87.93
2022-12-20T04:03:51.358Z,87.48
2022-12-20T04:06:19.958Z,87.79
2022-12-20T04:08:49.477Z,87.74
2022-12-20T04:11:17.658Z,87.58
2022-12-20T04:13:46.418Z,87.13
2022-12-20T04:16:15.123Z,87.19
2022-12-20T04:18:43.396Z,88.54
2022-12-20T04:21:12.437Z,89.40
2022-12-20T04:23:42.071Z,88.49
2022-12-20T04:26:13.443Z,87.91
2022-12-20T04:28:41.595Z,88.82
2022-12-20T04:31:09.869Z,88.77
2022-12-20T04:33:38.281Z,89.63
2022-12-20T04:36:06.952Z,89.08
2022-12-20T04:38:35.175Z,88.71
2022-12-20T04:41:03.334Z,88.71
2022-12-20T04:43:32.695Z,87.95
2022-12-20T04:46:00.693Z,87.70
2022-12-20T04:48:55.679Z,87.79
2022-12-20T04:51:18.368Z,87.57
2022-12-20T04:53:48.694Z,87.40
2022-12-20T04:56:22.225Z,88.13
2022-12-20T04:58:53.602Z,88.32
2022-12-20T05:01:23.001Z,88.69
2022-12-20T05:03:51.630Z,87.17
2022-12-20T05:06:20.021Z,87.17
2022-12-20T05:08:47.982Z,87.52
2022-12-20T05:11:16.032Z,87.90
2022-12-20T05:13:44.067Z,88.41
2022-12-20T05:16:13.916Z,88.04
2022-12-20T05:18:48.523Z,87.39
2022-12-20T05:21:34.211Z,88.31
2022-12-20T05:24:19.695Z,87.89
2022-12-20T05:26:47.665Z,88.24
2022-12-20T05:29:16.916Z,89.47
2022-12-20T05:31:46.406Z,89.44
2022-12-20T05:34:14.477Z,90.13
2022-12-20T05:36:42.528Z,90.33
2022-12-20T05:39:11.724Z,90.62
2022-12-20T05:41:40.645Z,90.96
2022-12-20T05:44:08.911Z,91.41
2022-12-20T05:46:37.049Z,90.98
2022-12-20T05:49:06.426Z,89.26
2022-12-20T05:51:34.533Z,90.17
2022-12-20T05:54:02.443Z,89.09
2022-12-20T05:56:30.450Z,88.94
2022-12-20T05:58:59.861Z,87.56
2022-12-20T06:01:28.305Z,86.75
2022-12-20T06:03:56.865Z,86.65
2022-12-20T06:06:26.162Z,86.64
2022-12-20T06:08:54.182Z,86.91
2022-12-20T06:11:27.720Z,86.45
2022-12-20T06:13:57.668Z,85.83
2022-12-20T06:16:25.695Z,85.39
2022-12-20T06:18:53.849Z,85.72
2022-12-20T06:21:21.817Z,86.39
2022-12-20T06:23:51.195Z,86.08
2022-12-20T06:26:19.186Z,84.90
2022-12-20T06:28:52.372Z,85.08
2022-12-20T06:31:20.457Z,85.02
2022-12-20T06:33:48.417Z,85.20
2022-12-20T06:36:16.450Z,85.13
2022-12-20T06:38:44.497Z,84.88
2022-12-20T06:41:13.941Z,85.83
2022-12-20T06:43:41.909Z,85.88
2022-12-20T06:46:09.895Z,85.37
2022-12-20T06:48:37.905Z,83.43
2022-12-20T06:51:06.065Z,81.34
2022-12-20T06:53:33.994Z,80.85
2022-12-20T06:56:01.944Z,80.20
2022-12-20T06:58:31.323Z,80.86
2022-12-20T07:00:59.714Z,81.92
2022-12-20T07:03:27.788Z,83.05
2022-12-20T07:05:56.867Z,82.90
2022-12-20T07:08:25.609Z,82.28
2022-12-20T07:10:54.571Z,82.57
2022-12-20T07:13:22.736Z,81.68
2022-12-20T07:15:59.451Z,80.98
2022-12-20T07:18:27.415Z,80.55
2022-12-20T07:20:55.463Z,78.95
2022-12-20T07:23:23.410Z,79.32
2022-12-20T07:25:56.617Z,78.64
2022-12-20T07:28:26.160Z,78.09
2022-12-20T07:30:55.917Z,78.15
2022-12-20T07:33:24.735Z,77.11
2022-12-20T07:35:54.821Z,75.53
2022-12-20T07:38:22.921Z,74.68
2022-12-20T07:40:50.892Z,75.06
2022-12-20T07:43:18.788Z,74.24
2022-12-20T07:45:47.666Z,73.37
2022-12-20T07:48:21.547Z,72.89
2022-12-20T07:50:50.056Z,72.63
2022-12-20T07:53:18.053Z,73.73
2022-12-20T07:55:45.981Z,73.43
2022-12-20T07:58:15.990Z,72.50
2022-12-20T08:00:44.383Z,71.99
2022-12-20T08:03:16.611Z,72.16
2022-12-20T08:05:51.038Z,72.85
2022-12-20T08:08:19.402Z,73.50
2022-12-20T08:10:48.784Z,73.32
2022-12-20T08:13:17.048Z,72.07
2022-12-20T08:15:45.108Z,72.02
2022-12-20T08:18:13.171Z,73.39
2022-12-20T08:20:41.326Z,72.90
2022-12-20T08:23:10.656Z,74.05
2022-12-20T08:25:41.824Z,72.50
2022-12-20T08:28:10.317Z,73.70
2022-12-20T08:30:38.611Z,73.74
2022-12-20T08:33:06.765Z,74.46
2022-12-20T08:35:35.324Z,74.39
2022-12-20T08:38:03.227Z,75.00
2022-12-20T08:40:32.507Z,74.09
2022-12-20T08:43:03.700Z,72.81
2022-12-20T08:45:36.201Z,72.70
2022-12-20T08:48:04.206Z,71.67
2022-12-20T08:50:32.131Z,71.17
2022-12-20T08:53:00.027Z,69.65
2022-12-20T08:55:28.023Z,70.43
2022-12-20T08:57:58.864Z,68.60
2022-12-20T09:00:27.150Z,68.00
2022-12-20T09:02:56.023Z,67.97
2022-12-20T09:05:24.070Z,70.06
2022-12-20T09:07:52.106Z,68.83
2022-12-20T09:10:20.071Z,67.73
2022-12-20T09:12:48.013Z,66.42
2022-12-20T09:15:17.474Z,68.57
2022-12-20T09:17:47.173Z,66.89
2022-12-20T09:20:15.716Z,67.10
2022-12-20T09:22:43.678Z,67.98
2022-12-20T09:25:11.757Z,68.04
2022-12-20T09:27:39.699Z,69.04
2022-12-20T09:30:08.943Z,68.49
2022-12-20T09:32:38.597Z,68.85
2022-12-20T09:35:07.292Z,68.93
2022-12-20T09:37:35.221Z,67.38
2022-12-20T09:40:03.177Z,66.81
2022-12-20T09:42:32.301Z,65.11
2022-12-20T09:45:06.776Z,64.69
2022-12-20T09:47:37.092Z,64.39
2022-12-20T09:50:08.441Z,64.94
2022-12-20T09:53:00.490Z,66.16
2022-12-20T09:55:36.287Z,65.75
2022-12-20T09:58:29.400Z,66.64
2022-12-20T10:00:57.981Z,66.84
2022-12-20T10:03:31.240Z,64.99
2022-12-20T10:06:09.686Z,64.33
2022-12-20T10:08:51.324Z,65.16
2022-12-20T10:11:44.844Z,67.10
2022-12-20T10:14:37.114Z,64.98
2022-12-20T10:17:11.175Z,65.56
2022-12-20T10:20:00.836Z,64.64
2022-12-20T10:22:34.640Z,63.57
2022-12-20T10:25:14.970Z,61.96
2022-12-20T10:27:44.951Z,62.22
2022-12-20T10:30:15.952Z,62.39
2022-12-20T10:32:47.036Z,63.76
2022-12-20T10:35:25.412Z,65.08
2022-12-20T10:38:09.619Z,63.54
2022-12-20T10:41:19.582Z,65.07
2022-12-20T10:43:29.295Z,63.99
2022-12-20T10:46:02.002Z,61.50
2022-12-20T10:48:32.970Z,62.34
2022-12-20T10:51:04.158Z,63.06
2022-12-20T10:53:33.787Z,62.52
2022-12-20T10:56:18.034Z,61.52
2022-12-20T10:58:54.117Z,62.16
2022-12-20T11:01:23.990Z,61.23
2022-12-20T11:03:59.016Z,60.96
2022-12-20T11:06:30.809Z,61.32
2022-12-20T11:09:24.661Z,60.98
2022-12-20T11:12:00.848Z,61.84
2022-12-20T11:14:34.540Z,60.70
2022-12-20T11:17:18.628Z,61.13
2022-12-20T11:20:07.115Z,62.39
2022-12-20T11:22:52.238Z,60.96
2022-12-20T11:25:34.619Z,58.34
2022-12-20T11:28:19.454Z,58.66
2022-12-20T11:31:01.835Z,59.83
2022-12-20T11:33:59.395Z,59.06
2022-12-20T11:36:41.159Z,58.40
2022-12-20T11:39:22.703Z,59.05
2022-12-20T11:42:01.381Z,58.12
2022-12-20T11:44:48.227Z,57.22
2022-12-20T11:47:47.724Z,58.23
2022-12-20T11:50:33.255Z,59.81
2022-12-20T11:53:08.689Z,59.09
2022-12-20T11:55:41.789Z,59.88
2022-12-20T11:58:19.431Z,59.86
2022-12-20T12:00:54.881Z,58.20
2022-12-20T12:03:29.170Z,57.96
2022-12-20T12:06:01.932Z,58.16
2022-12-20T12:08:39.753Z,57.95
2022-12-20T12:11:39.843Z,56.97
2022-12-20T12:14:04.981Z,58.83
2022-12-20T12:16:36.753Z,57.13
2022-12-20T12:19:08.975Z,58.81
2022-12-20T12:21:44.034Z,58.07
2022-12-20T12:24:21.779Z,56.91
2022-12-20T12:26:49.788Z,55.46
2022-12-20T12:29:20.912Z,55.09
2022-12-20T12:31:55.045Z,55.45
2022-12-20T12:34:40.368Z,55.24
2022-12-20T12:37:37.941Z,57.42
2022-12-20T12:40:30.782Z,58.44
2022-12-20T12:43:19.568Z,56.69
2022-12-20T12:45:51.491Z,56.74
2022-12-20T12:48:23.154Z,56.22
2022-12-20T12:50:54.233Z,55.28
2022-12-20T12:53:27.516Z,55.72
2022-12-20T12:56:12.694Z,54.93
2022-12-20T12:58:49.023Z,54.53
2022-12-20T13:01:48.858Z,54.50
2022-12-20T13:04:29.417Z,54.78
2022-12-20T13:07:01.211Z,55.00
2022-12-20T13:09:43.361Z,55.79
2022-12-20T13:12:51.020Z,56.28
2022-12-20T13:15:51.467Z,55.54
2022-12-20T13:18:30.392Z,56.22
2022-12-20T13:21:36.668Z,55.60
2022-12-20T13:24:37.389Z,55.56
2022-12-20T13:27:29.229Z,56.54
2022-12-20T13:30:17.336Z,58.73
2022-12-20T13:33:22.944Z,56.35
2022-12-20T13:36:30.160Z,57.21
2022-12-20T13:39:01.384Z,56.77
2022-12-20T13:41:48.758Z,57.08
2022-12-20T13:44:39.904Z,56.91
2022-12-20T13:47:28.397Z,55.91
2022-12-20T13:49:56.351Z,56.08
2022-12-20T13:52:29.413Z,59.03
2022-12-20T13:55:01.850Z,58.50
2022-12-20T13:57:40.428Z,58.36
2022-12-20T14:00:26.510Z,57.40
2022-12-20T14:02:55.924Z,57.94
2022-12-20T14:05:26.638Z,57.75
2022-12-20T14:08:00.567Z,59.46
2022-12-20T14:10:32.552Z,59.29
2022-12-20T14:13:01.016Z,58.39
2022-12-20T14:15:31.703Z,58.15
2022-12-20T14:18:06.954Z,58.77
2022-12-20T14:20:37.192Z,59.10
2022-12-20T14:23:07.491Z,60.54
2022-12-20T14:25:45.215Z,61.28
2022-12-20T14:28:27.158Z,61.49
2022-12-20T14:30:56.519Z,60.29
2022-12-20T14:33:30.886Z,61.91
2022-12-20T14:36:00.007Z,63.57
2022-12-20T14:38:31.688Z,63.22
2022-12-20T14:41:01.077Z,61.80
2022-12-20T14:43:33.473Z,62.89
2022-12-20T14:46:10.041Z,63.09
2022-12-20T14:48:38.060Z,62.30
2022-12-20T14:51:06.830Z,61.67
2022-12-20T14:53:36.141Z,62.35
2022-12-20T14:56:07.384Z,62.60
2022-12-20T14:58:35.778Z,63.19
2022-12-20T15:01:18.433Z,62.64
2022-12-20T15:03:51.994Z,63.15
2022-12-20T15:06:35.177Z,63.51
2022-12-20T15:09:03.185Z,63.29
2022-12-20T15:11:34.951Z,63.29
2022-12-20T15:14:04.483Z,63.93
2022-12-20T15:16:32.420Z,64.32
2022-12-20T15:19:01.763Z,64.84
2022-12-20T15:21:32.670Z,65.15
2022-12-20T15:24:03.243Z,65.50
2022-12-20T15:26:32.645Z,66.29
2022-12-20T15:29:00.577Z,67.03
2022-12-20T15:31:33.696Z,66.68
2022-12-20T15:34:04.882Z,66.83
2022-12-20T15:36:34.054Z,67.81
2022-12-20T15:39:17.452Z,68.26
2022-12-20T15:41:51.045Z,68.08
2022-12-20T15:44:21.921Z,68.03
2022-12-20T15:46:50.176Z,68.09
2022-12-20T15:49:21.316Z,68.05
2022-12-20T15:51:50.843Z,68.56
2022-12-20T15:54:27.375Z,68.73
2022-12-20T15:56:57.439Z,67.95
2022-12-20T15:59:58.265Z,68.71
2022-12-20T16:02:22.690Z,68.27
2022-12-20T16:04:51.081Z,68.36
2022-12-20T16:07:19.097Z,67.82
2022-12-20T16:09:47.118Z,70.11
2022-12-20T16:12:19.275Z,69.19
2022-12-20T16:14:47.563Z,70.15
2022-12-20T16:17:15.908Z,70.87
2022-12-20T16:19:44.146Z,70.28
2022-12-20T16:22:16.798Z,70.00
2022-12-20T16:24:45.091Z,71.33
2022-12-20T16:27:13.090Z,70.83
2022-12-20T16:29:42.524Z,69.72
2022-12-20T16:32:15.574Z,69.95
2022-12-20T16:34:43.702Z,70.26
2022-12-20T16:37:12.853Z,71.04
2022-12-20T16:39:57.009Z,70.56
2022-12-20T16:42:31.114Z,72.37
2022-12-20T16:45:08.153Z,72.84
2022-12-20T16:50:26.292Z,73.67
2022-12-20T16:52:55.218Z,74.15
2022-12-20T16:55:47.368Z,73.97
2022-12-20T16:58:15.577Z,73.77
2022-12-20T17:00:45.197Z,74.12
2022-12-20T17:03:14.240Z,74.69
2022-12-20T17:05:42.352Z,74.67
2022-12-20T17:10:55.509Z,75.23
2022-12-20T17:13:23.396Z,75.16
2022-12-20T17:15:52.804Z,75.45
2022-12-20T17:18:20.861Z,75.82
2022-12-20T17:20:48.749Z,75.70
2022-12-20T17:23:16.929Z,76.03
2022-12-20T17:25:50.259Z,76.44
2022-12-20T17:28:21.730Z,77.93
2022-12-20T17:30:50.621Z,77.73
2022-12-20T17:33:20.203Z,77.54
2022-12-20T17:35:48.148Z,77.36
2022-12-20T17:38:16.096Z,77.84
2022-12-20T17:40:44.111Z,78.36
2022-12-20T17:43:14.053Z,77.68
2022-12-20T17:45:42.202Z,77.46
2022-12-20T17:48:10.128Z,77.15
2022-12-20T17:50:39.453Z,77.61
2022-12-20T17:53:07.420Z,77.11
2022-12-20T17:55:36.571Z,78.52
2022-12-20T17:58:04.659Z,79.07
2022-12-20T18:00:39.009Z,78.19
2022-12-20T18:03:08.971Z,78.81
2022-12-20T18:05:42.623Z,80.15
2022-12-20T18:08:10.541Z,81.04
2022-12-20T18:10:38.467Z,80.87
2022-12-20T18:13:06.437Z,80.84
2022-12-20T18:15:34.516Z,81.61
2022-12-20T18:18:02.480Z,80.85
2022-12-20T18:20:30.426Z,80.65
2022-12-20T18:22:59.737Z,81.61
2022-12-20T18:25:30.689Z,80.94
2022-12-20T18:27:58.667Z,81.25
2022-12-20T18:30:26.993Z,80.44
2022-12-20T18:32:54.945Z,80.95
2022-12-20T18:35:22.927Z,81.91
2022-12-20T18:37:50.808Z,81.83
2022-12-20T18:40:20.386Z,82.13
2022-12-20T18:42:48.304Z,81.50
2022-12-20T18:45:16.281Z,82.51
2022-12-20T18:47:44.180Z,83.25
2022-12-20T18:50:14.359Z,83.08
2022-12-20T18:52:43.179Z,81.26
2022-12-20T18:55:15.277Z,83.34
2022-12-20T18:57:45.678Z,84.89
2022-12-20T19:00:18.557Z,85.79
2022-12-20T19:02:47.310Z,85.89
2022-12-20T19:05:16.391Z,85.57
2022-12-20T19:07:44.722Z,85.19
2022-12-20T19:10:13.128Z,86.40
2022-12-20T19:12:41.420Z,86.15
2022-12-20T19:15:11.802Z,88.28
2022-12-20T19:17:39.780Z,87.88
2022-12-20T19:20:09.019Z,87.39
2022-12-20T19:22:37.230Z,86.79
2022-12-20T19:25:05.504Z,86.86
2022-12-20T19:27:47.725Z,86.60
2022-12-20T19:30:17.499Z,86.53
2022-12-20T19:32:46.373Z,87.11
2022-12-20T19:35:45.679Z,87.11
2022-12-20T19:38:15.786Z,87.14
2022-12-20T19:40:43.767Z,86.22
2022-12-20T19:43:11.749Z,86.20
2022-12-20T19:45:41.356Z,85.74
2022-12-20T19:51:10.046Z,87.09
2022-12-20T19:53:39.759Z,87.03
2022-12-20T19:56:08.716Z,87.31
2022-12-20T19:58:36.814Z,86.54
2022-12-20T20:01:31.263Z,87.19
2022-12-20T20:04:01.750Z,86.56
2022-12-20T20:07:17.984Z,87.29
2022-12-20T20:09:46.053Z,87.11
2022-12-20T20:12:13.955Z,88.88
2022-12-20T20:14:42.592Z,90.02
2022-12-20T20:17:22.407Z,88.66
2022-12-20T20:19:51.885Z,89.17
2022-12-20T20:22:24.154Z,88.36
2022-12-20T20:24:55.245Z,90.12
2022-12-20T20:27:43.413Z,90.09
2022-12-20T20:30:19.063Z,89.03
2022-12-20T20:32:48.584Z,87.77
2022-12-20T20:35:17.164Z,88.54
2022-12-20T20:37:46.615Z,88.69
2022-12-20T20:40:20.277Z,88.23
2022-12-20T20:42:48.779Z,88.02
2022-12-20T20:45:17.088Z,89.17
2022-12-20T20:47:46.139Z,89.35
2022-12-20T20:50:15.573Z,88.66
2022-12-20T20:52:44.159Z,89.28
2022-12-20T20:55:16.876Z,88.83
2022-12-20T20:57:44.930Z,88.21
2022-12-20T21:00:13.882Z,87.41
2022-12-20T21:02:42.523Z,88.33
2022-12-20T21:08:56.624Z,90.20
2022-12-20T21:11:25.676Z,89.65
2022-12-20T21:13:54.802Z,90.16
2022-12-20T21:16:24.494Z,89.38
2022-12-20T21:18:52.872Z,89.53
2022-12-20T21:21:21.434Z,89.16
2022-12-20T21:23:51.003Z,90.30
2022-12-20T21:26:21.330Z,89.22
2022-12-20T21:28:49.539Z,88.94
2022-12-20T21:31:19.798Z,89.23
2022-12-20T21:33:48.061Z,89.79
2022-12-20T21:36:17.369Z,90.48
2022-12-20T21:38:50.682Z,90.52
2022-12-20T21:41:19.244Z,88.95
2022-12-20T21:43:47.314Z,89.17
2022-12-20T21:46:15.357Z,89.40
2022-12-20T21:48:45.188Z,89.70
2022-12-20T21:51:15.177Z,91.16
2022-12-20T21:53:44.417Z,90.67
2022-12-20T21:56:14.094Z,90.01
2022-12-20T21:58:42.481Z,90.10
2022-12-20T22:01:10.998Z,89.91
2022-12-20T22:03:40.090Z,89.68
2022-12-20T22:06:08.392Z,89.97
2022-12-20T22:08:36.939Z,91.66
2022-12-20T22:11:07.299Z,92.29
2022-12-20T22:13:41.526Z,91.98
2022-12-20T22:16:11.741Z,92.12
2022-12-20T22:18:40.827Z,92.31
2022-12-20T22:21:10.394Z,90.95
2022-12-20T22:23:39.056Z,91.00
2022-12-20T22:26:09.500Z,91.48
2022-12-20T22:28:39.617Z,91.93
2022-12-20T22:31:09.247Z,91.97
2022-12-20T22:33:37.835Z,90.92
2022-12-20T22:36:06.486Z,90.99
2022-12-20T22:38:34.774Z,90.83
2022-12-20T22:41:11.539Z,91.32
2022-12-20T22:43:42.075Z,90.77
2022-12-20T22:46:11.561Z,91.27
2022-12-20T22:48:40.517Z,91.09
2022-12-20T22:51:11.615Z,92.10
2022-12-20T22:53:40.240Z,92.41
2022-12-20T22:56:09.153Z,92.44
2022-12-20T22:58:37.640Z,91.98
2022-12-20T23:01:09.594Z,91.99
2022-12-20T23:03:37.926Z,92.85
2022-12-20T23:06:07.900Z,93.39
2022-12-20T23:08:37.464Z,92.00
2022-12-20T23:11:28.640Z,92.20
2022-12-20T23:14:14.128Z,90.86
2022-12-20T23:16:43.535Z,90.88
2022-12-20T23:19:11.544Z,90.11
2022-12-20T23:21:56.650Z,89.73
2022-12-20T23:24:24.827Z,89.85
2022-12-20T23:26:52.738Z,90.20
2022-12-20T23:29:20.625Z,90.68
2022-12-20T23:31:49.935Z,91.08
2022-12-20T23:34:17.930Z,91.53
2022-12-20T23:36:45.771Z,91.92
2022-12-20T23:39:13.759Z,92.04
2022-12-20T23:41:41.743Z,91.35
2022-12-20T23:44:09.787Z,91.87
2022-12-20T23:46:38.326Z,92.37
2022-12-20T23:49:07.601Z,91.85
2022-12-20T23:51:35.516Z,91.71
2022-12-20T23:54:03.474Z,90.92
2022-12-20T23:56:31.438Z,90.89
2022-12-20T23:58:59.341Z,90.61
